Desert Spring — V7XQ8 — position and weather

sailwx.info

Track history (hours):
 
Tides and Currents Weather Stations Pressure Air Temp Water Temp Dewpoint Dewpoint Depression Visibility Wind Speed Wind Dir Waves Ship Positions

Desert Spring

Last reported at 2017-Jan-21 09:07 UTC. Time now 2017-Feb-25 20:42 UTC.
Position S 30°20' E 030°53'.
Warning: this ship's position is 35 days out of date.

Length 193 m; draft 7.1 m.

Type: Cargo ship. MMSI: 538004547.

Date/timePositionNaut miles runAvg speedWind from/ knotsBaromVisibWave heightAir tempDewpointWater temp
2017-Jan-21 09:07S 30°20' E 030°53'6 9.9
2017-Jan-21 08:33S 30°15' E 030°56'1010.5
2017-Jan-21 07:33S 30°06' E 031°01'1111.3
2017-Jan-21 06:33S 29°56' E 031°07'5 4.7
2017-Jan-21 05:33S 29°53' E 031°03'0 0.4
2017-Jan-21 04:33S 29°52' E 031°03'0 0.0
2017-Jan-21 03:32S 29°52' E 031°03'0 0.0
2017-Jan-21 02:32S 29°52' E 031°03'0 0.0
2017-Jan-21 01:33S 29°52' E 031°03'0 0.0
2017-Jan-21 00:33S 29°52' E 031°03'0 0.0
2017-Jan-20 23:32S 29°52' E 031°03'0 0.0
2017-Jan-20 22:32S 29°52' E 031°03'0 0.0
2017-Jan-20 21:29S 29°52' E 031°03'0 0.0
2017-Jan-20 20:29S 29°52' E 031°03'0 0.0
2017-Jan-20 19:32S 29°52' E 031°03'0 0.0
2017-Jan-20 18:32S 29°52' E 031°03'0 0.4
2017-Jan-20 17:33S 29°53' E 031°03'5 4.8
2017-Jan-20 16:34S 29°49' E 031°06'1 1.3
2017-Jan-20 15:31S 29°47' E 031°07'1 1.1
2017-Jan-20 14:31S 29°49' E 031°07'1 1.0
2017-Jan-20 13:33S 29°49' E 031°08'6 5.6
2017-Jan-20 12:33S 29°50' E 031°14'9 8.9
2017-Jan-20 11:33S 29°50' E 031°24'9 9.4
2017-Jan-20 10:33S 29°50' E 031°35'1211.5
2017-Jan-20 09:33S 29°51' E 031°48'  
Track history (hours):
 
Tides and Currents Weather Stations Pressure Air Temp Water Temp Dewpoint Dewpoint Depression Visibility Wind Speed Wind Dir Waves Ship Positions

Desert Spring

Last reported at 2017-Jan-21 09:07 UTC. Time now 2017-Feb-25 20:42 UTC.
Position S 30°20' E 030°53'.
Warning: this ship's position is 35 days out of date.

Length 193 m; draft 7.1 m.

Type: Cargo ship. MMSI: 538004547.

Date/timePositionNaut miles runAvg speedWind from/ knotsBaromVisibWave heightAir tempDewpointWater temp
2017-Jan-21 09:07S 30°20' E 030°53'6 9.9
2017-Jan-21 08:33S 30°15' E 030°56'1010.5
2017-Jan-21 07:33S 30°06' E 031°01'1111.3
2017-Jan-21 06:33S 29°56' E 031°07'5 4.7
2017-Jan-21 05:33S 29°53' E 031°03'0 0.4
2017-Jan-21 04:33S 29°52' E 031°03'0 0.0
2017-Jan-21 03:32S 29°52' E 031°03'0 0.0
2017-Jan-21 02:32S 29°52' E 031°03'0 0.0
2017-Jan-21 01:33S 29°52' E 031°03'0 0.0
2017-Jan-21 00:33S 29°52' E 031°03'0 0.0
2017-Jan-20 23:32S 29°52' E 031°03'0 0.0
2017-Jan-20 22:32S 29°52' E 031°03'0 0.0
2017-Jan-20 21:29S 29°52' E 031°03'0 0.0
2017-Jan-20 20:29S 29°52' E 031°03'0 0.0
2017-Jan-20 19:32S 29°52' E 031°03'0 0.0
2017-Jan-20 18:32S 29°52' E 031°03'0 0.4
2017-Jan-20 17:33S 29°53' E 031°03'5 4.8
2017-Jan-20 16:34S 29°49' E 031°06'1 1.3
2017-Jan-20 15:31S 29°47' E 031°07'1 1.1
2017-Jan-20 14:31S 29°49' E 031°07'1 1.0
2017-Jan-20 13:33S 29°49' E 031°08'6 5.6
2017-Jan-20 12:33S 29°50' E 031°14'9 8.9
2017-Jan-20 11:33S 29°50' E 031°24'9 9.4
2017-Jan-20 10:33S 29°50' E 031°35'1211.5
2017-Jan-20 09:33S 29°51' E 031°48'  

Dump ship's entire track history